createdAt,value
2019-02-24T00:00:48.448Z,37.81
2019-02-24T00:01:48.412Z,37.92
2019-02-24T00:02:48.413Z,37.81
2019-02-24T00:03:48.432Z,37.71
2019-02-24T00:04:48.391Z,37.71
2019-02-24T00:05:48.375Z,37.61
2019-02-24T00:06:48.380Z,37.90
2019-02-24T00:07:48.367Z,37.81
2019-02-24T00:08:48.402Z,37.92
2019-02-24T00:09:48.332Z,37.81
2019-02-24T00:10:48.323Z,37.92
2019-02-24T00:11:48.303Z,37.81
2019-02-24T00:12:48.828Z,37.79
2019-02-24T00:13:48.313Z,37.81
2019-02-24T00:14:48.331Z,37.79
2019-02-24T00:15:48.263Z,37.71
2019-02-24T00:16:48.306Z,37.81
2019-02-24T00:17:48.259Z,37.81
2019-02-24T00:18:48.249Z,37.31
2019-02-24T00:19:48.234Z,37.81
2019-02-24T00:20:48.253Z,37.70
2019-02-24T00:21:48.199Z,37.51
2019-02-24T00:22:48.255Z,37.81
2019-02-24T00:23:48.195Z,37.92
2019-02-24T00:24:48.180Z,37.92
2019-02-24T00:25:48.200Z,37.71
2019-02-24T00:26:48.162Z,37.92
2019-02-24T00:27:48.168Z,37.81
2019-02-24T00:28:48.135Z,37.61
2019-02-24T00:29:48.133Z,37.81
2019-02-24T00:30:48.114Z,37.81
2019-02-24T00:31:48.137Z,37.61
2019-02-24T00:32:48.103Z,37.92
2019-02-24T00:33:48.077Z,37.81
2019-02-24T00:34:48.137Z,37.81
2019-02-24T00:35:48.063Z,37.79
2019-02-24T00:36:48.094Z,37.90
2019-02-24T00:37:48.040Z,37.92
2019-02-24T00:38:48.017Z,37.61
2019-02-24T00:39:48.045Z,37.81
2019-02-24T00:40:47.995Z,37.81
2019-02-24T00:41:48.019Z,37.92
2019-02-24T00:42:48.028Z,37.92
2019-02-24T00:43:47.975Z,37.92
2019-02-24T00:44:47.991Z,37.41
2019-02-24T00:45:47.954Z,37.61
2019-02-24T00:46:47.954Z,37.81
2019-02-24T00:47:47.971Z,37.90
2019-02-24T00:48:47.965Z,37.92
2019-02-24T00:49:47.923Z,37.81
2019-02-24T00:50:47.928Z,37.81
2019-02-24T00:51:47.892Z,37.92
2019-02-24T00:52:47.867Z,37.92
2019-02-24T00:53:47.897Z,37.92
2019-02-24T00:54:47.891Z,37.92
2019-02-24T00:55:47.831Z,37.51
2019-02-24T00:56:47.830Z,37.41
2019-02-24T00:57:47.848Z,37.81
2019-02-24T00:58:47.840Z,37.61
2019-02-24T00:59:47.802Z,37.51
2019-02-24T01:00:47.817Z,37.61
2019-02-24T01:01:47.814Z,37.51
2019-02-24T01:02:47.768Z,37.81
2019-02-24T01:03:47.781Z,37.51
2019-02-24T01:04:47.750Z,37.81
2019-02-24T01:05:47.739Z,37.81
2019-02-24T01:06:47.728Z,37.61
2019-02-24T01:07:47.726Z,37.51
2019-02-24T01:08:47.747Z,37.59
2019-02-24T01:09:47.692Z,37.41
2019-02-24T01:10:47.709Z,37.41
2019-02-24T01:11:47.671Z,37.61
2019-02-24T01:12:47.680Z,37.61
2019-02-24T01:13:47.699Z,37.41
2019-02-24T01:14:47.657Z,37.79
2019-02-24T01:15:47.637Z,37.41
2019-02-24T01:16:47.627Z,37.29
2019-02-24T01:17:47.603Z,37.49
2019-02-24T01:18:47.725Z,37.59
2019-02-24T01:19:47.603Z,37.61
2019-02-24T01:20:47.572Z,37.41
2019-02-24T01:21:47.557Z,37.61
2019-02-24T01:22:47.607Z,37.51
2019-02-24T01:23:47.541Z,37.71
2019-02-24T01:24:47.600Z,37.71
2019-02-24T01:25:47.567Z,37.71
2019-02-24T01:26:47.529Z,37.40
2019-02-24T01:27:47.488Z,37.61
2019-02-24T01:28:47.479Z,37.41
2019-02-24T01:29:47.539Z,37.51
2019-02-24T01:30:47.459Z,37.41
2019-02-24T01:31:47.484Z,37.51
2019-02-24T01:32:47.446Z,37.21
2019-02-24T01:33:47.455Z,37.61
2019-02-24T01:34:47.455Z,37.61
2019-02-24T01:35:47.419Z,37.41
2019-02-24T01:36:47.653Z,37.40
2019-02-24T01:37:47.403Z,37.61
2019-02-24T01:38:47.406Z,37.41
2019-02-24T01:39:47.433Z,37.61
2019-02-24T01:40:47.357Z,37.19
2019-02-24T01:41:47.363Z,37.59
2019-02-24T01:42:47.330Z,37.21
2019-02-24T01:43:47.335Z,37.61
2019-02-24T01:44:47.355Z,37.61
2019-02-24T01:45:47.350Z,37.51
2019-02-24T01:46:47.295Z,37.51
2019-02-24T01:47:47.311Z,37.21
2019-02-24T01:48:47.278Z,37.21
2019-02-24T01:49:47.272Z,37.21
2019-02-24T01:50:47.347Z,37.21
2019-02-24T01:51:47.260Z,37.49
2019-02-24T01:52:47.224Z,37.19
2019-02-24T01:53:47.232Z,37.19
2019-02-24T01:54:47.210Z,37.21
2019-02-24T01:55:47.220Z,37.21
2019-02-24T01:56:47.217Z,37.51
2019-02-24T01:57:47.167Z,37.41
2019-02-24T01:58:47.184Z,37.21
2019-02-24T01:59:47.147Z,37.51
2019-02-24T02:00:47.169Z,37.41
2019-02-24T02:01:47.139Z,37.51
2019-02-24T02:02:47.207Z,37.19
2019-02-24T02:03:47.111Z,37.51
2019-02-24T02:04:47.095Z,37.51
2019-02-24T02:05:47.157Z,37.21
2019-02-24T02:06:47.120Z,37.49
2019-02-24T02:07:47.066Z,37.51
2019-02-24T02:08:47.077Z,37.21
2019-02-24T02:09:47.040Z,37.51
2019-02-24T02:10:47.056Z,37.51
2019-02-24T02:11:47.047Z,37.31
2019-02-24T02:12:47.015Z,37.51
2019-02-24T02:13:47.018Z,37.51
2019-02-24T02:14:46.999Z,37.51
2019-02-24T02:15:46.996Z,37.31
2019-02-24T02:16:47.014Z,37.49
2019-02-24T02:17:46.991Z,37.51
2019-02-24T02:18:46.949Z,37.51
2019-02-24T02:19:46.991Z,37.51
2019-02-24T02:20:46.944Z,37.49
2019-02-24T02:21:47.032Z,37.70
2019-02-24T02:22:46.927Z,37.41
2019-02-24T02:23:46.955Z,37.71
2019-02-24T02:24:46.889Z,37.21
2019-02-24T02:25:46.879Z,37.31
2019-02-24T02:26:46.908Z,37.11
2019-02-24T02:27:46.855Z,37.41
2019-02-24T02:28:46.876Z,37.90
2019-02-24T02:29:46.835Z,37.41
2019-02-24T02:30:46.859Z,37.81
2019-02-24T02:31:46.809Z,37.70
2019-02-24T02:32:46.855Z,37.41
2019-02-24T02:33:46.816Z,37.41
2019-02-24T02:34:46.797Z,37.41
2019-02-24T02:35:46.800Z,37.99
2019-02-24T02:36:46.753Z,37.01
2019-02-24T02:37:46.824Z,37.41
2019-02-24T02:38:46.753Z,37.40
2019-02-24T02:39:46.735Z,37.71
2019-02-24T02:40:46.736Z,37.01
2019-02-24T02:41:46.718Z,37.92
2019-02-24T02:42:46.698Z,37.31
2019-02-24T02:43:46.745Z,37.61
2019-02-24T02:44:46.663Z,37.71
2019-02-24T02:45:46.693Z,37.61
2019-02-24T02:46:46.651Z,37.40
2019-02-24T02:47:46.634Z,37.40
2019-02-24T02:48:46.659Z,37.92
2019-02-24T02:49:46.637Z,37.51
2019-02-24T02:50:46.645Z,37.61
2019-02-24T02:51:46.585Z,37.61
2019-02-24T02:52:46.607Z,37.71
2019-02-24T02:53:48.506Z,37.71
2019-02-24T02:54:46.574Z,37.61
2019-02-24T02:55:46.584Z,37.61
2019-02-24T02:56:46.583Z,37.61
2019-02-24T02:57:46.546Z,37.71
2019-02-24T02:58:53.852Z,37.71
2019-02-24T02:59:47.521Z,37.41
2019-02-24T03:00:46.520Z,37.41
2019-02-24T03:01:46.493Z,37.61
2019-02-24T03:02:46.490Z,37.61
2019-02-24T03:03:46.525Z,37.61
2019-02-24T03:04:46.454Z,37.41
2019-02-24T03:05:46.444Z,37.51
2019-02-24T03:06:46.460Z,37.40
2019-02-24T03:07:46.427Z,37.41
2019-02-24T03:08:46.440Z,37.51
2019-02-24T03:09:46.443Z,37.41
2019-02-24T03:10:46.416Z,37.61
2019-02-24T03:11:46.386Z,37.51
2019-02-24T03:12:46.405Z,37.41
2019-02-24T03:13:46.356Z,36.91
2019-02-24T03:14:46.379Z,37.41
2019-02-24T03:15:46.338Z,36.81
2019-02-24T03:16:46.380Z,37.41
2019-02-24T03:17:46.318Z,36.91
2019-02-24T03:18:46.300Z,37.01
2019-02-24T03:19:46.986Z,37.01
2019-02-24T03:20:46.294Z,37.41
2019-02-24T03:21:46.281Z,37.51
2019-02-24T03:22:46.304Z,37.01
2019-02-24T03:23:46.289Z,36.81
2019-02-24T03:24:46.284Z,36.91
2019-02-24T03:25:46.242Z,37.41
2019-02-24T03:26:46.260Z,36.91
2019-02-24T03:27:46.226Z,36.91
2019-02-24T03:28:46.216Z,37.41
2019-02-24T03:29:46.217Z,36.91
2019-02-24T03:30:46.263Z,36.91
2019-02-24T03:31:46.186Z,37.01
2019-02-24T03:32:46.159Z,36.91
2019-02-24T03:33:46.165Z,37.01
2019-02-24T03:34:46.174Z,36.91
2019-02-24T03:35:46.164Z,36.79
2019-02-24T03:36:46.129Z,36.81
2019-02-24T03:37:46.113Z,36.81
2019-02-24T03:38:46.143Z,36.79
2019-02-24T03:39:46.116Z,37.01
2019-02-24T03:40:46.103Z,36.81
2019-02-24T03:41:46.131Z,36.79
2019-02-24T03:42:46.076Z,36.91
2019-02-24T03:43:46.068Z,36.79
2019-02-24T03:44:46.025Z,36.81
2019-02-24T03:45:46.026Z,37.11
2019-02-24T03:46:46.039Z,36.81
2019-02-24T03:47:46.025Z,37.11
2019-02-24T03:48:46.026Z,36.81
2019-02-24T03:49:45.997Z,36.91
2019-02-24T03:50:45.986Z,36.81
2019-02-24T03:51:46.024Z,37.01
2019-02-24T03:52:46.018Z,36.99
2019-02-24T03:53:45.956Z,37.01
2019-02-24T03:54:45.933Z,37.01
2019-02-24T03:55:45.916Z,36.81
2019-02-24T03:56:45.901Z,37.21
2019-02-24T03:57:45.942Z,37.41
2019-02-24T03:58:45.876Z,37.01
2019-02-24T03:59:45.866Z,36.91
2019-02-24T04:00:45.863Z,36.91
2019-02-24T04:01:45.871Z,36.81
2019-02-24T04:02:45.869Z,36.81
2019-02-24T04:03:45.826Z,36.71
2019-02-24T04:04:45.811Z,36.81
2019-02-24T04:05:45.799Z,37.11
2019-02-24T04:06:45.841Z,36.91
2019-02-24T04:07:45.818Z,36.91
2019-02-24T04:08:45.770Z,36.81
2019-02-24T04:09:45.769Z,37.01
2019-02-24T04:10:45.748Z,36.81
2019-02-24T04:11:45.734Z,37.01
2019-02-24T04:12:45.728Z,36.91
2019-02-24T04:13:45.740Z,36.81
2019-02-24T04:14:45.760Z,36.71
2019-02-24T04:15:45.701Z,37.01
2019-02-24T04:16:45.693Z,36.81
2019-02-24T04:17:45.674Z,36.81
2019-02-24T04:18:45.698Z,36.79
2019-02-24T04:19:45.649Z,37.01
2019-02-24T04:20:45.646Z,37.01
2019-02-24T04:21:45.633Z,36.81
2019-02-24T04:22:45.618Z,37.01
2019-02-24T04:23:45.639Z,37.01
2019-02-24T04:24:45.640Z,36.90
2019-02-24T04:25:45.624Z,37.01
2019-02-24T04:26:45.595Z,36.81
2019-02-24T04:27:45.567Z,37.01
2019-02-24T04:28:45.581Z,37.01
2019-02-24T04:29:45.546Z,37.01
2019-02-24T04:30:45.535Z,36.91
2019-02-24T04:31:45.526Z,37.01
2019-02-24T04:32:45.509Z,36.91
2019-02-24T04:33:45.511Z,36.91
2019-02-24T04:34:45.514Z,37.01
2019-02-24T04:35:45.477Z,36.91
2019-02-24T04:36:45.524Z,36.91
2019-02-24T04:37:45.459Z,36.91
2019-02-24T04:38:45.452Z,36.91
2019-02-24T04:39:45.498Z,36.91
2019-02-24T04:40:45.431Z,37.01
2019-02-24T04:41:45.424Z,36.91
2019-02-24T04:42:45.402Z,36.91
2019-02-24T04:43:45.401Z,36.91
2019-02-24T04:44:45.401Z,36.91
2019-02-24T04:45:45.404Z,36.91
2019-02-24T04:46:45.361Z,36.91
2019-02-24T04:47:45.377Z,36.91
2019-02-24T04:48:45.341Z,36.71
2019-02-24T04:49:45.331Z,36.91
2019-02-24T04:50:45.347Z,36.90
2019-02-24T04:51:45.315Z,36.91
2019-02-24T04:52:45.303Z,36.91
2019-02-24T04:53:45.283Z,37.01
2019-02-24T04:54:45.273Z,36.91
2019-02-24T04:55:45.298Z,37.01
2019-02-24T04:56:45.257Z,36.91
2019-02-24T04:57:45.253Z,37.11
2019-02-24T04:58:45.264Z,36.81
2019-02-24T04:59:45.256Z,37.01
2019-02-24T05:00:45.209Z,37.01
2019-02-24T05:01:45.255Z,36.81
2019-02-24T05:02:45.197Z,36.91
2019-02-24T05:03:45.182Z,37.11
2019-02-24T05:04:45.169Z,37.11
2019-02-24T05:05:45.159Z,36.81
2019-02-24T05:06:45.179Z,37.41
2019-02-24T05:07:45.138Z,36.71
2019-02-24T05:08:45.123Z,37.41
2019-02-24T05:09:45.112Z,37.41
2019-02-24T05:10:45.130Z,37.41
2019-02-24T05:11:45.144Z,37.11
2019-02-24T05:12:45.081Z,37.41
2019-02-24T05:13:45.073Z,37.31
2019-02-24T05:14:45.066Z,37.11
2019-02-24T05:15:45.048Z,37.11
2019-02-24T05:16:45.081Z,37.41
2019-02-24T05:17:45.039Z,37.21
2019-02-24T05:18:45.019Z,37.11
2019-02-24T05:19:45.005Z,37.21
2019-02-24T05:20:45.017Z,37.31
2019-02-24T05:21:45.089Z,37.41
2019-02-24T05:22:44.978Z,37.11
2019-02-24T05:23:44.966Z,37.21
2019-02-24T05:24:44.950Z,37.21
2019-02-24T05:25:44.963Z,37.21
2019-02-24T05:26:44.933Z,37.21
2019-02-24T05:27:44.961Z,37.21
2019-02-24T05:28:44.906Z,37.21
2019-02-24T05:29:46.294Z,37.21
2019-02-24T05:30:44.921Z,37.01
2019-02-24T05:31:44.894Z,37.01
2019-02-24T05:32:44.961Z,37.01
2019-02-24T05:33:44.855Z,37.01
2019-02-24T05:34:44.844Z,37.21
2019-02-24T05:35:44.836Z,37.21
2019-02-24T05:36:44.850Z,37.41
2019-02-24T05:37:44.837Z,37.21
2019-02-24T05:38:44.803Z,37.21
2019-02-24T05:39:44.786Z,37.11
2019-02-24T05:40:44.784Z,37.21
2019-02-24T05:41:44.768Z,37.21
2019-02-24T05:42:44.809Z,37.31
2019-02-24T05:43:44.787Z,37.41
2019-02-24T05:44:44.733Z,37.41
2019-02-24T05:45:44.722Z,37.21
2019-02-24T05:46:44.711Z,37.11
2019-02-24T05:47:44.709Z,37.01
2019-02-24T05:48:44.751Z,37.10
2019-02-24T05:49:44.683Z,36.41
2019-02-24T05:50:44.678Z,37.11
2019-02-24T05:51:44.657Z,37.21
2019-02-24T05:52:44.648Z,37.31
2019-02-24T05:53:44.640Z,37.31
2019-02-24T05:54:44.729Z,37.31
2019-02-24T05:55:44.634Z,37.11
2019-02-24T05:56:44.615Z,36.21
2019-02-24T05:57:44.609Z,37.41
2019-02-24T05:58:44.584Z,37.11
2019-02-24T05:59:44.598Z,37.11
2019-02-24T06:00:44.564Z,37.21
2019-02-24T06:01:44.551Z,36.21
2019-02-24T06:02:44.544Z,36.41
2019-02-24T06:03:44.546Z,37.11
2019-02-24T06:04:44.544Z,37.11
2019-02-24T06:05:44.508Z,37.31
2019-02-24T06:06:44.495Z,37.11
2019-02-24T06:07:44.492Z,37.11
2019-02-24T06:08:44.475Z,37.11
2019-02-24T06:09:44.514Z,36.41
2019-02-24T06:10:44.490Z,36.41
2019-02-24T06:11:44.458Z,37.11
2019-02-24T06:12:44.438Z,37.11
2019-02-24T06:13:44.420Z,37.31
2019-02-24T06:14:44.461Z,36.41
2019-02-24T06:15:44.400Z,36.91
2019-02-24T06:16:44.406Z,36.21
2019-02-24T06:17:44.391Z,36.41
2019-02-24T06:18:44.388Z,37.11
2019-02-24T06:19:44.362Z,36.41
2019-02-24T06:20:44.374Z,37.01
2019-02-24T06:21:44.352Z,36.41
2019-02-24T06:22:44.330Z,36.91
2019-02-24T06:23:44.326Z,36.41
2019-02-24T06:24:44.309Z,36.41
2019-02-24T06:25:44.364Z,36.81
2019-02-24T06:26:44.293Z,37.01
2019-02-24T06:27:44.309Z,36.31
2019-02-24T06:28:44.262Z,37.01
2019-02-24T06:29:44.251Z,36.81
2019-02-24T06:30:44.283Z,36.41
2019-02-24T06:31:44.234Z,36.51
2019-02-24T06:32:44.228Z,37.41
2019-02-24T06:33:44.211Z,36.81
2019-02-24T06:34:44.207Z,36.41
2019-02-24T06:35:44.186Z,36.81
2019-02-24T06:36:44.205Z,36.81
2019-02-24T06:37:44.174Z,36.81
2019-02-24T06:38:44.192Z,36.21
2019-02-24T06:39:44.150Z,36.41
2019-02-24T06:40:44.142Z,36.41
2019-02-24T06:41:44.147Z,36.41
2019-02-24T06:42:44.114Z,36.81
2019-02-24T06:43:44.109Z,36.71
2019-02-24T06:44:44.098Z,36.91
2019-02-24T06:45:44.113Z,37.01
2019-02-24T06:46:44.103Z,37.01
2019-02-24T06:47:44.062Z,36.61
2019-02-24T06:48:44.055Z,36.81
2019-02-24T06:49:44.067Z,37.01
2019-02-24T06:50:44.041Z,36.69
2019-02-24T06:51:44.057Z,36.91
2019-02-24T06:52:44.019Z,36.71
2019-02-24T06:53:43.999Z,36.21
2019-02-24T06:54:43.996Z,36.31
2019-02-24T06:55:43.980Z,36.71
2019-02-24T06:56:43.970Z,36.61
2019-02-24T06:57:43.984Z,36.91
2019-02-24T06:58:43.945Z,36.41
2019-02-24T06:59:43.937Z,36.81
2019-02-24T07:00:43.973Z,36.81
2019-02-24T07:01:43.911Z,36.71
2019-02-24T07:02:43.933Z,36.71
2019-02-24T07:03:43.896Z,37.01
2019-02-24T07:04:43.887Z,36.81
2019-02-24T07:05:43.880Z,36.81
2019-02-24T07:06:43.877Z,36.81
2019-02-24T07:07:43.901Z,36.71
2019-02-24T07:08:43.847Z,36.71
2019-02-24T07:09:43.827Z,36.91
2019-02-24T07:10:43.818Z,36.71
2019-02-24T07:11:43.811Z,36.81
2019-02-24T07:12:43.812Z,36.81
2019-02-24T07:13:43.818Z,36.81
2019-02-24T07:14:43.775Z,36.81
2019-02-24T07:15:43.764Z,36.81
2019-02-24T07:16:43.751Z,36.71
2019-02-24T07:17:43.754Z,36.81
2019-02-24T07:18:43.799Z,36.81
2019-02-24T07:19:43.721Z,36.71
2019-02-24T07:20:43.743Z,36.61
2019-02-24T07:21:43.702Z,36.61
2019-02-24T07:22:43.692Z,36.71
2019-02-24T07:23:43.726Z,36.61
2019-02-24T07:24:43.665Z,36.61
2019-02-24T07:25:43.656Z,36.81
2019-02-24T07:26:43.679Z,36.71
2019-02-24T07:27:43.647Z,36.81
2019-02-24T07:28:43.628Z,36.81
2019-02-24T07:29:43.643Z,36.61
2019-02-24T07:30:43.612Z,36.81
2019-02-24T07:31:43.592Z,36.71
2019-02-24T07:32:43.588Z,36.71
2019-02-24T07:33:43.576Z,36.61
2019-02-24T07:34:43.660Z,36.81
2019-02-24T07:35:43.551Z,36.51
2019-02-24T07:36:43.563Z,36.81
2019-02-24T07:37:43.532Z,36.61
2019-02-24T07:38:43.515Z,36.81
2019-02-24T07:39:43.537Z,36.81
2019-02-24T07:40:43.500Z,36.81
2019-02-24T07:41:43.507Z,36.61
2019-02-24T07:42:43.481Z,36.61
2019-02-24T07:43:43.461Z,36.71
2019-02-24T07:44:43.483Z,36.51
2019-02-24T07:45:43.442Z,36.51
2019-02-24T07:46:43.443Z,36.61
2019-02-24T07:47:43.431Z,36.61
2019-02-24T07:48:43.411Z,36.71
2019-02-24T07:49:43.443Z,36.71
2019-02-24T07:50:43.390Z,36.61
2019-02-24T07:51:43.392Z,36.41
2019-02-24T07:52:43.368Z,36.71
2019-02-24T07:53:43.364Z,36.71
2019-02-24T07:54:43.382Z,36.71
2019-02-24T07:55:43.346Z,36.61
2019-02-24T07:56:43.324Z,36.71
2019-02-24T07:57:43.313Z,36.61
2019-02-24T07:58:43.302Z,36.71
2019-02-24T07:59:43.337Z,36.71
2019-02-24T08:00:43.290Z,36.71
2019-02-24T08:01:43.276Z,36.61
2019-02-24T08:02:43.269Z,36.51
2019-02-24T08:03:43.255Z,36.71
2019-02-24T08:04:43.267Z,36.71
2019-02-24T08:05:43.245Z,36.91
2019-02-24T08:06:43.217Z,36.51
2019-02-24T08:07:43.228Z,36.71
2019-02-24T08:08:43.199Z,36.31
2019-02-24T08:09:43.224Z,36.71
2019-02-24T08:10:43.186Z,36.71
2019-02-24T08:11:43.167Z,36.71
2019-02-24T08:12:43.171Z,36.51
2019-02-24T08:13:44.095Z,36.71
2019-02-24T08:14:43.163Z,36.31
2019-02-24T08:15:43.121Z,36.71
2019-02-24T08:16:43.119Z,36.71
2019-02-24T08:17:43.106Z,36.81
2019-02-24T08:18:49.312Z,36.31
2019-02-24T08:19:43.104Z,36.41
2019-02-24T08:20:43.074Z,36.71
2019-02-24T08:21:43.125Z,36.51
2019-02-24T08:22:43.055Z,36.51
2019-02-24T08:23:43.037Z,36.81
2019-02-24T08:24:43.052Z,36.81
2019-02-24T08:25:43.018Z,36.51
2019-02-24T08:26:43.013Z,36.81
2019-02-24T08:27:43.012Z,36.51
2019-02-24T08:28:42.990Z,36.51
2019-02-24T08:29:43.001Z,36.71
2019-02-24T08:30:42.994Z,36.81
2019-02-24T08:31:42.960Z,36.81
2019-02-24T08:32:42.947Z,36.51
2019-02-24T08:33:42.933Z,36.81
2019-02-24T08:34:42.942Z,36.81
2019-02-24T08:35:42.931Z,36.41
2019-02-24T08:36:42.902Z,36.51
2019-02-24T08:37:42.896Z,36.31
2019-02-24T08:38:42.918Z,36.31
2019-02-24T08:39:42.900Z,36.81
2019-02-24T08:40:42.864Z,36.31
2019-02-24T08:41:42.904Z,36.21
2019-02-24T08:42:42.839Z,36.41
2019-02-24T08:43:42.829Z,36.41
2019-02-24T08:44:42.840Z,36.31
2019-02-24T08:45:42.803Z,36.71
2019-02-24T08:46:42.794Z,36.51
2019-02-24T08:47:42.786Z,36.71
2019-02-24T08:48:42.774Z,36.51
2019-02-24T08:49:42.794Z,36.51
2019-02-24T08:50:42.751Z,36.51
2019-02-24T08:51:42.761Z,36.31
2019-02-24T08:52:42.728Z,36.71
2019-02-24T08:53:42.724Z,36.41
2019-02-24T08:54:42.738Z,36.31
2019-02-24T08:55:42.713Z,36.71
2019-02-24T08:56:42.690Z,36.41
2019-02-24T08:57:42.679Z,36.51
2019-02-24T08:58:42.670Z,36.41
2019-02-24T08:59:42.688Z,36.41
2019-02-24T09:00:50.764Z,36.31
2019-02-24T09:01:43.644Z,36.51
2019-02-24T09:02:42.622Z,36.41
2019-02-24T09:03:42.613Z,36.51
2019-02-24T09:04:42.628Z,36.41
2019-02-24T09:05:42.588Z,36.71
2019-02-24T09:06:42.581Z,36.51
2019-02-24T09:07:42.587Z,36.41
2019-02-24T09:08:42.569Z,36.41
2019-02-24T09:09:42.555Z,36.41
2019-02-24T09:10:42.565Z,36.41
2019-02-24T09:11:42.534Z,36.41
2019-02-24T09:12:42.516Z,36.41
2019-02-24T09:13:42.510Z,36.41
2019-02-24T09:14:42.500Z,36.41
2019-02-24T09:15:42.509Z,36.41
2019-02-24T09:16:42.480Z,36.71
2019-02-24T09:17:42.509Z,36.71
2019-02-24T09:18:42.502Z,36.61
2019-02-24T09:19:42.440Z,36.51
2019-02-24T09:20:42.462Z,36.71
2019-02-24T09:21:42.434Z,36.41
2019-02-24T09:22:42.419Z,36.41
2019-02-24T09:23:42.407Z,36.41
2019-02-24T09:24:42.389Z,36.61
2019-02-24T09:25:42.422Z,36.61
2019-02-24T09:26:42.373Z,36.41
2019-02-24T09:27:42.363Z,36.71
2019-02-24T09:28:42.346Z,36.41
2019-02-24T09:29:42.367Z,36.71
2019-02-24T09:30:42.368Z,36.61
2019-02-24T09:31:42.321Z,36.41
2019-02-24T09:32:42.314Z,36.91
2019-02-24T09:33:42.294Z,36.71
2019-02-24T09:34:42.295Z,36.61
2019-02-24T09:35:42.310Z,36.51
2019-02-24T09:36:42.263Z,36.51
2019-02-24T09:37:42.251Z,36.51
2019-02-24T09:38:42.245Z,36.61
2019-02-24T09:39:42.236Z,36.71
2019-02-24T09:40:42.291Z,36.71
2019-02-24T09:41:42.216Z,36.71
2019-02-24T09:42:42.199Z,36.91
2019-02-24T09:43:42.193Z,36.51
2019-02-24T09:44:42.178Z,36.51
2019-02-24T09:45:42.216Z,36.81
2019-02-24T09:46:42.159Z,36.71
2019-02-24T09:47:46.723Z,36.71
2019-02-24T09:48:43.131Z,36.71
2019-02-24T09:49:42.121Z,36.71
2019-02-24T09:50:42.145Z,37.31
2019-02-24T09:51:42.106Z,36.61
2019-02-24T09:52:42.097Z,36.71
2019-02-24T09:53:42.085Z,36.71
2019-02-24T09:54:42.072Z,36.71
2019-02-24T09:55:42.088Z,36.61
2019-02-24T09:56:42.052Z,36.71
2019-02-24T09:57:42.046Z,37.31
2019-02-24T09:58:42.029Z,36.81
2019-02-24T09:59:42.032Z,37.21
2019-02-24T10:00:42.032Z,36.81
2019-02-24T10:01:41.994Z,36.81
2019-02-24T10:02:41.994Z,36.51
2019-02-24T10:03:41.979Z,37.31
2019-02-24T10:04:41.967Z,37.31
2019-02-24T10:05:41.989Z,37.31
2019-02-24T10:06:41.939Z,37.11
2019-02-24T10:07:41.933Z,36.71
2019-02-24T10:08:41.933Z,37.21
2019-02-24T10:09:41.917Z,36.81
2019-02-24T10:10:41.950Z,37.21
2019-02-24T10:11:41.901Z,37.21
2019-02-24T10:12:41.876Z,37.21
2019-02-24T10:13:41.881Z,37.21
2019-02-24T10:14:41.867Z,37.11
2019-02-24T10:15:41.965Z,36.61
2019-02-24T10:16:41.836Z,37.21
2019-02-24T10:17:41.829Z,37.21
2019-02-24T10:18:41.824Z,37.11
2019-02-24T10:19:41.799Z,37.11
2019-02-24T10:20:41.924Z,36.61
2019-02-24T10:21:41.788Z,37.11
2019-02-24T10:22:41.767Z,36.81
2019-02-24T10:23:41.775Z,36.61
2019-02-24T10:24:41.751Z,36.61
2019-02-24T10:25:41.755Z,36.61
2019-02-24T10:26:41.757Z,36.71
2019-02-24T10:27:41.710Z,36.61
2019-02-24T10:28:41.728Z,36.61
2019-02-24T10:29:41.695Z,36.81
2019-02-24T10:30:41.711Z,36.61
2019-02-24T10:31:41.675Z,37.01
2019-02-24T10:32:41.677Z,37.31
2019-02-24T10:33:41.645Z,36.81
2019-02-24T10:34:41.636Z,36.61
2019-02-24T10:35:41.653Z,36.61
2019-02-24T10:36:41.615Z,36.81
2019-02-24T10:37:41.639Z,36.81
2019-02-24T10:38:41.610Z,36.61
2019-02-24T10:39:41.608Z,36.61
2019-02-24T10:40:41.595Z,36.91
2019-02-24T10:41:41.564Z,37.21
2019-02-24T10:42:41.557Z,36.61
2019-02-24T10:43:41.538Z,36.81
2019-02-24T10:44:41.557Z,36.81
2019-02-24T10:45:41.553Z,36.91
2019-02-24T10:46:41.514Z,37.01
2019-02-24T10:47:41.496Z,37.01
2019-02-24T10:48:41.511Z,36.61
2019-02-24T10:49:41.492Z,37.31
2019-02-24T10:50:41.491Z,36.91
2019-02-24T10:51:41.462Z,37.21
2019-02-24T10:52:41.451Z,37.11
2019-02-24T10:53:41.437Z,36.91
2019-02-24T10:54:41.421Z,36.81
2019-02-24T10:55:41.437Z,37.01
2019-02-24T10:56:41.404Z,37.21
2019-02-24T10:57:41.398Z,37.01
2019-02-24T10:58:41.385Z,37.01
2019-02-24T10:59:41.401Z,36.91
2019-02-24T11:00:41.393Z,36.81
2019-02-24T11:01:41.350Z,37.01
2019-02-24T11:02:41.341Z,37.21
2019-02-24T11:03:41.328Z,37.01
2019-02-24T11:04:41.313Z,36.91
2019-02-24T11:05:41.332Z,36.81
2019-02-24T11:06:41.308Z,36.81
2019-02-24T11:07:41.303Z,36.91
2019-02-24T11:08:41.275Z,36.51
2019-02-24T11:09:41.261Z,36.81
2019-02-24T11:10:41.282Z,37.01
2019-02-24T11:11:41.240Z,36.81
2019-02-24T11:12:41.232Z,37.01
2019-02-24T11:13:41.252Z,36.31
2019-02-24T11:14:41.221Z,36.91
2019-02-24T11:15:41.261Z,36.81
2019-02-24T11:16:41.187Z,37.01
2019-02-24T11:17:41.183Z,37.01
2019-02-24T11:18:41.169Z,37.01
2019-02-24T11:19:41.159Z,37.01
2019-02-24T11:20:41.152Z,37.01
2019-02-24T11:21:41.174Z,36.81
2019-02-24T11:22:41.134Z,36.31
2019-02-24T11:23:41.129Z,36.81
2019-02-24T11:24:41.119Z,36.81
2019-02-24T11:25:41.094Z,37.01
2019-02-24T11:26:41.112Z,36.51
2019-02-24T11:27:41.075Z,37.41
2019-02-24T11:28:41.064Z,37.01
2019-02-24T11:29:41.058Z,36.51
2019-02-24T11:30:41.042Z,36.31
2019-02-24T11:31:41.057Z,36.91
2019-02-24T11:32:41.036Z,37.41
2019-02-24T11:33:41.011Z,37.01
2019-02-24T11:34:41.001Z,36.61
2019-02-24T11:35:40.991Z,37.01
2019-02-24T11:36:41.015Z,37.11
2019-02-24T11:37:40.967Z,36.51
2019-02-24T11:38:40.954Z,36.51
2019-02-24T11:39:40.968Z,37.01
2019-02-24T11:40:40.932Z,37.41
2019-02-24T11:41:40.953Z,36.51
2019-02-24T11:42:40.922Z,36.81
2019-02-24T11:43:40.937Z,36.91
2019-02-24T11:44:40.901Z,36.51
2019-02-24T11:45:40.888Z,36.51
2019-02-24T11:46:40.901Z,36.51
2019-02-24T11:47:40.865Z,37.21
2019-02-24T11:48:40.845Z,36.51
2019-02-24T11:49:40.851Z,37.01
2019-02-24T11:50:40.826Z,36.51
2019-02-24T11:51:40.862Z,36.21
2019-02-24T11:52:40.800Z,37.01
2019-02-24T11:53:40.793Z,37.01
2019-02-24T11:54:40.796Z,36.81
2019-02-24T11:55:40.778Z,36.51
2019-02-24T11:56:40.788Z,36.51
2019-02-24T11:57:40.757Z,36.71
2019-02-24T11:58:40.741Z,36.21
2019-02-24T11:59:40.732Z,37.41
2019-02-24T12:00:40.714Z,37.01
2019-02-24T12:01:47.279Z,36.21
2019-02-24T12:02:42.026Z,36.11
2019-02-24T12:03:40.683Z,36.51
2019-02-24T12:04:40.686Z,36.21
2019-02-24T12:05:40.668Z,36.31
2019-02-24T12:06:40.682Z,37.31
2019-02-24T12:07:40.648Z,36.21
2019-02-24T12:08:40.645Z,36.51
2019-02-24T12:09:40.629Z,36.21
2019-02-24T12:10:40.607Z,36.21
2019-02-24T12:11:40.622Z,36.21
2019-02-24T12:12:40.590Z,37.21
2019-02-24T12:13:40.580Z,36.21
2019-02-24T12:14:40.594Z,36.51
2019-02-24T12:15:40.557Z,36.51
2019-02-24T12:16:40.576Z,36.21
2019-02-24T12:17:40.547Z,36.11
2019-02-24T12:18:40.524Z,36.21
2019-02-24T12:19:40.514Z,36.41
2019-02-24T12:20:40.511Z,36.21
2019-02-24T12:21:40.523Z,36.21
2019-02-24T12:22:40.492Z,36.01
2019-02-24T12:23:40.471Z,36.91
2019-02-24T12:24:40.462Z,36.31
2019-02-24T12:25:40.450Z,36.91
2019-02-24T12:26:40.468Z,36.31
2019-02-24T12:27:40.438Z,36.21
2019-02-24T12:28:40.441Z,36.11
2019-02-24T12:29:40.409Z,36.21
2019-02-24T12:30:40.404Z,36.61
2019-02-24T12:31:40.418Z,36.01
2019-02-24T12:32:40.370Z,36.21
2019-02-24T12:33:40.374Z,36.21
2019-02-24T12:34:40.360Z,36.21
2019-02-24T12:35:40.344Z,36.21
2019-02-24T12:36:40.351Z,36.31
2019-02-24T12:37:40.327Z,36.21
2019-02-24T12:38:40.310Z,36.31
2019-02-24T12:39:40.294Z,36.21
2019-02-24T12:40:40.323Z,36.33
2019-02-24T12:41:40.308Z,36.11
2019-02-24T12:42:40.274Z,36.21
2019-02-24T12:43:40.286Z,36.31
2019-02-24T12:44:40.253Z,36.21
2019-02-24T12:45:40.232Z,36.21
2019-02-24T12:46:40.254Z,36.31
2019-02-24T12:47:40.210Z,36.11
2019-02-24T12:48:40.205Z,36.31
2019-02-24T12:49:40.202Z,36.21
2019-02-24T12:50:40.187Z,36.11
2019-02-24T12:51:40.300Z,36.31
2019-02-24T12:52:40.156Z,36.91